sensor_id;sensor_type;location;lat;lon;timestamp;P1;durP1;ratioP1;P2;durP2;ratioP2
27438;SDS011;14887;51.252;7.470;2022-09-12T00:01:03;12.53;;;6.33;;
27438;SDS011;14887;51.252;7.470;2022-09-12T00:03:39;14.13;;;5.33;;
27438;SDS011;14887;51.252;7.470;2022-09-12T00:06:12;13.63;;;6.63;;
27438;SDS011;14887;51.252;7.470;2022-09-12T00:08:44;22.30;;;7.37;;
27438;SDS011;14887;51.252;7.470;2022-09-12T00:11:10;14.60;;;7.40;;
27438;SDS011;14887;51.252;7.470;2022-09-12T00:13:37;12.47;;;6.80;;
27438;SDS011;14887;51.252;7.470;2022-09-12T00:16:04;12.93;;;6.27;;
27438;SDS011;14887;51.252;7.470;2022-09-12T00:18:31;24.37;;;8.03;;
27438;SDS011;14887;51.252;7.470;2022-09-12T00:21:00;12.37;;;6.20;;
27438;SDS011;14887;51.252;7.470;2022-09-12T00:23:27;10.20;;;5.90;;
27438;SDS011;14887;51.252;7.470;2022-09-12T00:25:53;11.03;;;6.07;;
27438;SDS011;14887;51.252;7.470;2022-09-12T00:28:19;14.77;;;6.73;;
27438;SDS011;14887;51.252;7.470;2022-09-12T00:30:45;12.20;;;7.20;;
27438;SDS011;14887;51.252;7.470;2022-09-12T00:33:12;11.47;;;5.60;;
27438;SDS011;14887;51.252;7.470;2022-09-12T00:35:41;12.90;;;6.87;;
27438;SDS011;14887;51.252;7.470;2022-09-12T00:38:11;10.93;;;6.23;;
27438;SDS011;14887;51.252;7.470;2022-09-12T00:40:38;14.40;;;7.47;;
27438;SDS011;14887;51.252;7.470;2022-09-12T00:43:05;13.07;;;7.07;;
27438;SDS011;14887;51.252;7.470;2022-09-12T00:45:34;14.13;;;7.33;;
27438;SDS011;14887;51.252;7.470;2022-09-12T00:48:00;13.00;;;7.37;;
27438;SDS011;14887;51.252;7.470;2022-09-12T00:50:28;12.50;;;6.83;;
27438;SDS011;14887;51.252;7.470;2022-09-12T00:52:57;20.80;;;8.00;;
27438;SDS011;14887;51.252;7.470;2022-09-12T00:55:32;15.50;;;7.83;;
27438;SDS011;14887;51.252;7.470;2022-09-12T00:58:03;14.50;;;6.87;;
27438;SDS011;14887;51.252;7.470;2022-09-12T01:00:36;12.70;;;6.97;;
27438;SDS011;14887;51.252;7.470;2022-09-12T01:03:06;17.67;;;7.77;;
27438;SDS011;14887;51.252;7.470;2022-09-12T01:05:36;12.97;;;7.33;;
27438;SDS011;14887;51.252;7.470;2022-09-12T01:08:05;13.73;;;7.67;;
27438;SDS011;14887;51.252;7.470;2022-09-12T01:10:33;15.70;;;7.83;;
27438;SDS011;14887;51.252;7.470;2022-09-12T01:13:00;15.30;;;7.90;;
27438;SDS011;14887;51.252;7.470;2022-09-12T01:15:29;11.40;;;6.83;;
27438;SDS011;14887;51.252;7.470;2022-09-12T01:18:06;14.13;;;6.70;;
27438;SDS011;14887;51.252;7.470;2022-09-12T01:31:27;14.63;;;7.43;;
27438;SDS011;14887;51.252;7.470;2022-09-12T01:37:06;11.93;;;6.87;;
27438;SDS011;14887;51.252;7.470;2022-09-12T01:40:00;12.87;;;7.63;;
27438;SDS011;14887;51.252;7.470;2022-09-12T01:42:39;17.20;;;7.60;;
27438;SDS011;14887;51.252;7.470;2022-09-12T01:45:33;11.70;;;7.30;;
27438;SDS011;14887;51.252;7.470;2022-09-12T01:48:17;14.10;;;7.50;;
27438;SDS011;14887;51.252;7.470;2022-09-12T01:50:46;13.50;;;7.57;;
27438;SDS011;14887;51.252;7.470;2022-09-12T01:53:17;12.10;;;7.63;;
27438;SDS011;14887;51.252;7.470;2022-09-12T01:55:48;13.03;;;6.30;;
27438;SDS011;14887;51.252;7.470;2022-09-12T01:58:32;13.97;;;6.73;;
27438;SDS011;14887;51.252;7.470;2022-09-12T02:01:19;12.70;;;6.57;;
27438;SDS011;14887;51.252;7.470;2022-09-12T02:04:09;9.70;;;6.13;;
27438;SDS011;14887;51.252;7.470;2022-09-12T02:06:47;11.00;;;6.60;;
27438;SDS011;14887;51.252;7.470;2022-09-12T02:09:21;11.13;;;6.70;;
27438;SDS011;14887;51.252;7.470;2022-09-12T02:11:56;11.10;;;6.60;;
27438;SDS011;14887;51.252;7.470;2022-09-12T02:14:24;13.37;;;6.33;;
27438;SDS011;14887;51.252;7.470;2022-09-12T02:19:31;8.80;;;5.73;;
27438;SDS011;14887;51.252;7.470;2022-09-12T02:22:01;12.07;;;6.40;;
27438;SDS011;14887;51.252;7.470;2022-09-12T02:24:35;10.43;;;5.53;;
27438;SDS011;14887;51.252;7.470;2022-09-12T02:27:07;9.53;;;6.00;;
27438;SDS011;14887;51.252;7.470;2022-09-12T02:29:37;12.20;;;6.07;;
27438;SDS011;14887;51.252;7.470;2022-09-12T02:32:04;11.17;;;6.80;;
27438;SDS011;14887;51.252;7.470;2022-09-12T02:34:44;15.77;;;6.53;;
27438;SDS011;14887;51.252;7.470;2022-09-12T02:37:17;16.63;;;6.57;;
27438;SDS011;14887;51.252;7.470;2022-09-12T02:40:03;14.20;;;6.20;;
27438;SDS011;14887;51.252;7.470;2022-09-12T02:42:32;14.03;;;5.67;;
27438;SDS011;14887;51.252;7.470;2022-09-12T02:44:59;8.67;;;6.43;;
27438;SDS011;14887;51.252;7.470;2022-09-12T02:47:27;13.67;;;6.87;;
27438;SDS011;14887;51.252;7.470;2022-09-12T02:49:58;8.73;;;5.50;;
27438;SDS011;14887;51.252;7.470;2022-09-12T02:52:24;12.53;;;6.57;;
27438;SDS011;14887;51.252;7.470;2022-09-12T02:54:51;10.63;;;6.47;;
27438;SDS011;14887;51.252;7.470;2022-09-12T02:57:19;11.60;;;6.37;;
27438;SDS011;14887;51.252;7.470;2022-09-12T02:59:46;9.10;;;5.33;;
27438;SDS011;14887;51.252;7.470;2022-09-12T03:05:17;17.77;;;7.07;;
27438;SDS011;14887;51.252;7.470;2022-09-12T03:21:10;12.37;;;6.50;;
27438;SDS011;14887;51.252;7.470;2022-09-12T03:23:59;11.30;;;6.47;;
27438;SDS011;14887;51.252;7.470;2022-09-12T03:26:49;13.90;;;7.27;;
27438;SDS011;14887;51.252;7.470;2022-09-12T03:29:25;10.30;;;7.00;;
27438;SDS011;14887;51.252;7.470;2022-09-12T03:31:55;12.20;;;7.07;;
27438;SDS011;14887;51.252;7.470;2022-09-12T03:34:22;13.17;;;6.63;;
27438;SDS011;14887;51.252;7.470;2022-09-12T03:36:49;12.13;;;6.37;;
27438;SDS011;14887;51.252;7.470;2022-09-12T03:39:15;13.00;;;7.20;;
27438;SDS011;14887;51.252;7.470;2022-09-12T03:41:41;12.53;;;6.57;;
27438;SDS011;14887;51.252;7.470;2022-09-12T03:44:07;12.60;;;7.80;;
27438;SDS011;14887;51.252;7.470;2022-09-12T03:46:32;14.40;;;6.13;;
27438;SDS011;14887;51.252;7.470;2022-09-12T03:48:58;12.20;;;7.30;;
27438;SDS011;14887;51.252;7.470;2022-09-12T03:51:24;10.73;;;6.30;;
27438;SDS011;14887;51.252;7.470;2022-09-12T03:53:49;15.73;;;8.03;;
27438;SDS011;14887;51.252;7.470;2022-09-12T03:56:15;14.30;;;7.40;;
27438;SDS011;14887;51.252;7.470;2022-09-12T03:58:42;13.10;;;8.10;;
27438;SDS011;14887;51.252;7.470;2022-09-12T04:01:11;16.87;;;8.13;;
27438;SDS011;14887;51.252;7.470;2022-09-12T04:03:39;17.20;;;9.13;;
27438;SDS011;14887;51.252;7.470;2022-09-12T04:06:06;13.53;;;7.87;;
27438;SDS011;14887;51.252;7.470;2022-09-12T04:08:33;15.07;;;7.47;;
27438;SDS011;14887;51.252;7.470;2022-09-12T04:11:03;15.47;;;8.43;;
27438;SDS011;14887;51.252;7.470;2022-09-12T04:13:30;14.60;;;7.43;;
27438;SDS011;14887;51.252;7.470;2022-09-12T04:15:57;16.00;;;8.00;;
27438;SDS011;14887;51.252;7.470;2022-09-12T04:18:23;15.07;;;7.67;;
27438;SDS011;14887;51.252;7.470;2022-09-12T04:20:49;15.90;;;8.13;;
27438;SDS011;14887;51.252;7.470;2022-09-12T04:23:14;19.67;;;8.00;;
27438;SDS011;14887;51.252;7.470;2022-09-12T04:25:40;14.40;;;7.70;;
27438;SDS011;14887;51.252;7.470;2022-09-12T04:28:05;18.40;;;8.50;;
27438;SDS011;14887;51.252;7.470;2022-09-12T04:30:32;16.53;;;9.37;;
27438;SDS011;14887;51.252;7.470;2022-09-12T04:32:58;17.43;;;8.30;;
27438;SDS011;14887;51.252;7.470;2022-09-12T04:35:24;19.10;;;11.00;;
27438;SDS011;14887;51.252;7.470;2022-09-12T04:37:49;17.97;;;8.13;;
27438;SDS011;14887;51.252;7.470;2022-09-12T04:40:15;18.50;;;9.70;;
27438;SDS011;14887;51.252;7.470;2022-09-12T04:42:41;17.30;;;9.50;;
27438;SDS011;14887;51.252;7.470;2022-09-12T04:45:06;14.37;;;8.50;;
27438;SDS011;14887;51.252;7.470;2022-09-12T04:47:32;18.07;;;8.43;;
27438;SDS011;14887;51.252;7.470;2022-09-12T04:49:58;20.80;;;8.83;;
27438;SDS011;14887;51.252;7.470;2022-09-12T04:52:23;15.70;;;8.50;;
27438;SDS011;14887;51.252;7.470;2022-09-12T04:54:49;19.07;;;8.80;;
27438;SDS011;14887;51.252;7.470;2022-09-12T04:57:14;16.90;;;9.40;;
27438;SDS011;14887;51.252;7.470;2022-09-12T04:59:40;17.57;;;9.10;;
27438;SDS011;14887;51.252;7.470;2022-09-12T05:02:06;21.90;;;9.30;;
27438;SDS011;14887;51.252;7.470;2022-09-12T05:04:31;18.30;;;9.37;;
27438;SDS011;14887;51.252;7.470;2022-09-12T05:06:57;17.77;;;9.17;;
27438;SDS011;14887;51.252;7.470;2022-09-12T05:09:22;16.43;;;9.50;;
27438;SDS011;14887;51.252;7.470;2022-09-12T05:11:48;20.50;;;9.60;;
27438;SDS011;14887;51.252;7.470;2022-09-12T05:14:13;19.87;;;9.67;;
27438;SDS011;14887;51.252;7.470;2022-09-12T05:16:39;13.80;;;8.50;;
27438;SDS011;14887;51.252;7.470;2022-09-12T05:19:05;27.40;;;10.30;;
27438;SDS011;14887;51.252;7.470;2022-09-12T05:21:31;18.27;;;9.23;;
27438;SDS011;14887;51.252;7.470;2022-09-12T05:23:57;15.53;;;8.20;;
27438;SDS011;14887;51.252;7.470;2022-09-12T05:26:26;17.30;;;8.70;;
27438;SDS011;14887;51.252;7.470;2022-09-12T05:28:52;18.10;;;9.57;;
27438;SDS011;14887;51.252;7.470;2022-09-12T05:31:19;20.30;;;9.73;;
27438;SDS011;14887;51.252;7.470;2022-09-12T05:33:47;25.60;;;11.97;;
27438;SDS011;14887;51.252;7.470;2022-09-12T05:36:21;14.43;;;9.47;;
27438;SDS011;14887;51.252;7.470;2022-09-12T05:38:48;18.50;;;9.60;;
27438;SDS011;14887;51.252;7.470;2022-09-12T05:41:21;22.40;;;9.63;;
27438;SDS011;14887;51.252;7.470;2022-09-12T05:43:55;20.73;;;10.73;;
27438;SDS011;14887;51.252;7.470;2022-09-12T05:46:24;21.20;;;9.03;;
27438;SDS011;14887;51.252;7.470;2022-09-12T05:48:53;22.73;;;9.67;;
27438;SDS011;14887;51.252;7.470;2022-09-12T05:51:21;20.33;;;9.33;;
27438;SDS011;14887;51.252;7.470;2022-09-12T05:53:50;19.23;;;9.10;;
27438;SDS011;14887;51.252;7.470;2022-09-12T05:56:18;25.73;;;8.57;;
27438;SDS011;14887;51.252;7.470;2022-09-12T05:58:46;19.00;;;9.40;;
27438;SDS011;14887;51.252;7.470;2022-09-12T06:01:16;17.60;;;9.47;;
27438;SDS011;14887;51.252;7.470;2022-09-12T06:03:44;21.07;;;9.60;;
27438;SDS011;14887;51.252;7.470;2022-09-12T06:06:15;19.90;;;9.10;;
27438;SDS011;14887;51.252;7.470;2022-09-12T06:08:45;13.77;;;8.47;;
27438;SDS011;14887;51.252;7.470;2022-09-12T06:11:13;14.23;;;8.10;;
27438;SDS011;14887;51.252;7.470;2022-09-12T06:13:42;14.37;;;7.43;;
27438;SDS011;14887;51.252;7.470;2022-09-12T06:16:09;14.80;;;8.10;;
27438;SDS011;14887;51.252;7.470;2022-09-12T06:18:40;16.03;;;7.20;;
27438;SDS011;14887;51.252;7.470;2022-09-12T06:21:10;13.77;;;6.30;;
27438;SDS011;14887;51.252;7.470;2022-09-12T06:23:37;33.73;;;7.90;;
27438;SDS011;14887;51.252;7.470;2022-09-12T06:26:04;11.97;;;7.10;;
27438;SDS011;14887;51.252;7.470;2022-09-12T06:28:31;14.10;;;6.73;;
27438;SDS011;14887;51.252;7.470;2022-09-12T06:31:06;13.33;;;6.97;;
27438;SDS011;14887;51.252;7.470;2022-09-12T06:33:36;12.87;;;7.20;;
27438;SDS011;14887;51.252;7.470;2022-09-12T06:36:13;10.37;;;7.37;;
27438;SDS011;14887;51.252;7.470;2022-09-12T06:38:40;10.13;;;6.80;;
27438;SDS011;14887;51.252;7.470;2022-09-12T06:41:07;13.73;;;7.87;;
27438;SDS011;14887;51.252;7.470;2022-09-12T06:43:36;14.03;;;7.77;;
27438;SDS011;14887;51.252;7.470;2022-09-12T06:46:02;16.73;;;7.93;;
27438;SDS011;14887;51.252;7.470;2022-09-12T06:48:28;16.30;;;7.37;;
27438;SDS011;14887;51.252;7.470;2022-09-12T06:50:54;11.47;;;6.83;;
27438;SDS011;14887;51.252;7.470;2022-09-12T06:53:28;14.87;;;7.63;;
27438;SDS011;14887;51.252;7.470;2022-09-12T06:55:58;12.33;;;7.10;;
27438;SDS011;14887;51.252;7.470;2022-09-12T06:58:29;18.03;;;7.37;;
27438;SDS011;14887;51.252;7.470;2022-09-12T07:01:05;14.90;;;7.13;;
27438;SDS011;14887;51.252;7.470;2022-09-12T07:03:56;10.63;;;6.20;;
27438;SDS011;14887;51.252;7.470;2022-09-12T07:06:24;12.73;;;6.50;;
27438;SDS011;14887;51.252;7.470;2022-09-12T07:08:56;12.30;;;6.30;;
27438;SDS011;14887;51.252;7.470;2022-09-12T07:11:29;14.07;;;6.63;;
27438;SDS011;14887;51.252;7.470;2022-09-12T07:13:57;13.13;;;7.33;;
27438;SDS011;14887;51.252;7.470;2022-09-12T07:16:23;9.93;;;6.70;;
27438;SDS011;14887;51.252;7.470;2022-09-12T07:18:56;12.50;;;6.97;;
27438;SDS011;14887;51.252;7.470;2022-09-12T07:21:23;10.20;;;6.00;;
27438;SDS011;14887;51.252;7.470;2022-09-12T07:23:49;8.43;;;5.97;;
27438;SDS011;14887;51.252;7.470;2022-09-12T07:26:22;10.00;;;6.17;;
27438;SDS011;14887;51.252;7.470;2022-09-12T07:28:51;8.63;;;5.40;;
27438;SDS011;14887;51.252;7.470;2022-09-12T07:31:18;8.03;;;6.20;;
27438;SDS011;14887;51.252;7.470;2022-09-12T07:33:46;8.53;;;6.40;;
27438;SDS011;14887;51.252;7.470;2022-09-12T07:36:14;9.17;;;6.47;;
27438;SDS011;14887;51.252;7.470;2022-09-12T07:38:41;17.53;;;6.90;;
27438;SDS011;14887;51.252;7.470;2022-09-12T07:43:36;10.90;;;6.03;;
27438;SDS011;14887;51.252;7.470;2022-09-12T07:46:02;10.90;;;5.80;;
27438;SDS011;14887;51.252;7.470;2022-09-12T07:48:27;9.87;;;6.80;;
27438;SDS011;14887;51.252;7.470;2022-09-12T07:50:57;14.77;;;7.10;;
27438;SDS011;14887;51.252;7.470;2022-09-12T07:53:24;12.40;;;6.40;;
27438;SDS011;14887;51.252;7.470;2022-09-12T07:55:57;10.73;;;6.60;;
27438;SDS011;14887;51.252;7.470;2022-09-12T07:58:23;13.60;;;6.13;;
27438;SDS011;14887;51.252;7.470;2022-09-12T08:00:49;11.47;;;7.63;;
27438;SDS011;14887;51.252;7.470;2022-09-12T08:03:15;11.43;;;6.80;;
27438;SDS011;14887;51.252;7.470;2022-09-12T08:05:41;12.93;;;6.70;;
27438;SDS011;14887;51.252;7.470;2022-09-12T08:08:07;15.97;;;8.13;;
27438;SDS011;14887;51.252;7.470;2022-09-12T08:10:33;12.50;;;7.03;;
27438;SDS011;14887;51.252;7.470;2022-09-12T08:12:59;13.57;;;7.10;;
27438;SDS011;14887;51.252;7.470;2022-09-12T08:15:25;16.90;;;7.70;;
27438;SDS011;14887;51.252;7.470;2022-09-12T08:17:50;11.43;;;7.27;;
27438;SDS011;14887;51.252;7.470;2022-09-12T08:20:16;13.50;;;7.87;;
27438;SDS011;14887;51.252;7.470;2022-09-12T08:22:42;15.13;;;8.10;;
27438;SDS011;14887;51.252;7.470;2022-09-12T08:25:08;13.40;;;7.10;;
27438;SDS011;14887;51.252;7.470;2022-09-12T08:27:34;15.90;;;8.03;;
27438;SDS011;14887;51.252;7.470;2022-09-12T08:29:59;15.20;;;7.90;;
27438;SDS011;14887;51.252;7.470;2022-09-12T08:32:25;12.43;;;6.73;;
27438;SDS011;14887;51.252;7.470;2022-09-12T08:34:50;13.23;;;8.03;;
27438;SDS011;14887;51.252;7.470;2022-09-12T08:37:16;10.80;;;7.20;;
27438;SDS011;14887;51.252;7.470;2022-09-12T08:39:42;14.37;;;7.20;;
27438;SDS011;14887;51.252;7.470;2022-09-12T08:42:08;9.97;;;6.83;;
27438;SDS011;14887;51.252;7.470;2022-09-12T08:47:10;13.03;;;8.00;;
27438;SDS011;14887;51.252;7.470;2022-09-12T08:55:25;10.03;;;6.17;;
27438;SDS011;14887;51.252;7.470;2022-09-12T08:57:55;21.10;;;8.90;;
27438;SDS011;14887;51.252;7.470;2022-09-12T09:00:21;9.73;;;6.80;;
27438;SDS011;14887;51.252;7.470;2022-09-12T09:10:58;8.57;;;5.17;;
27438;SDS011;14887;51.252;7.470;2022-09-12T09:16:45;50.00;;;23.20;;
27438;SDS011;14887;51.252;7.470;2022-09-12T09:19:18;8.33;;;5.97;;
27438;SDS011;14887;51.252;7.470;2022-09-12T09:24:32;7.57;;;5.07;;
27438;SDS011;14887;51.252;7.470;2022-09-12T09:27:03;7.20;;;4.70;;
27438;SDS011;14887;51.252;7.470;2022-09-12T09:32:03;7.30;;;4.73;;
27438;SDS011;14887;51.252;7.470;2022-09-12T09:34:38;5.40;;;3.90;;
27438;SDS011;14887;51.252;7.470;2022-09-12T09:37:06;5.60;;;4.40;;
27438;SDS011;14887;51.252;7.470;2022-09-12T09:39:59;5.73;;;4.70;;
27438;SDS011;14887;51.252;7.470;2022-09-12T09:44:58;11.03;;;5.00;;
27438;SDS011;14887;51.252;7.470;2022-09-12T09:47:26;7.27;;;4.17;;
27438;SDS011;14887;51.252;7.470;2022-09-12T09:49:52;7.70;;;5.47;;
27438;SDS011;14887;51.252;7.470;2022-09-12T09:52:20;12.70;;;5.27;;
27438;SDS011;14887;51.252;7.470;2022-09-12T09:54:54;9.47;;;5.70;;
27438;SDS011;14887;51.252;7.470;2022-09-12T10:00:21;8.57;;;6.20;;
27438;SDS011;14887;51.252;7.470;2022-09-12T10:05:48;8.17;;;6.50;;
27438;SDS011;14887;51.252;7.470;2022-09-12T10:08:19;10.27;;;6.90;;
27438;SDS011;14887;51.252;7.470;2022-09-12T10:10:59;10.43;;;5.90;;
27438;SDS011;14887;51.252;7.470;2022-09-12T10:13:42;8.97;;;6.10;;
27438;SDS011;14887;51.252;7.470;2022-09-12T10:16:34;9.47;;;6.00;;
27438;SDS011;14887;51.252;7.470;2022-09-12T10:19:20;9.33;;;5.97;;
27438;SDS011;14887;51.252;7.470;2022-09-12T10:21:50;8.67;;;6.43;;
27438;SDS011;14887;51.252;7.470;2022-09-12T10:24:24;7.63;;;4.97;;
27438;SDS011;14887;51.252;7.470;2022-09-12T10:26:58;8.20;;;6.20;;
27438;SDS011;14887;51.252;7.470;2022-09-12T10:29:53;9.47;;;6.43;;
27438;SDS011;14887;51.252;7.470;2022-09-12T10:32:39;7.77;;;4.67;;
27438;SDS011;14887;51.252;7.470;2022-09-12T10:35:15;7.70;;;5.23;;
27438;SDS011;14887;51.252;7.470;2022-09-12T10:37:51;6.60;;;4.20;;
27438;SDS011;14887;51.252;7.470;2022-09-12T10:40:21;7.00;;;4.53;;
27438;SDS011;14887;51.252;7.470;2022-09-12T10:42:53;7.60;;;4.50;;
27438;SDS011;14887;51.252;7.470;2022-09-12T10:47:53;4.60;;;3.60;;
27438;SDS011;14887;51.252;7.470;2022-09-12T10:50:30;7.40;;;4.53;;
27438;SDS011;14887;51.252;7.470;2022-09-12T10:53:17;4.60;;;3.97;;
27438;SDS011;14887;51.252;7.470;2022-09-12T10:58:42;8.37;;;4.77;;
27438;SDS011;14887;51.252;7.470;2022-09-12T11:01:24;6.57;;;4.60;;
27438;SDS011;14887;51.252;7.470;2022-09-12T11:04:08;5.60;;;4.03;;
27438;SDS011;14887;51.252;7.470;2022-09-12T11:15:44;5.00;;;3.37;;
27438;SDS011;14887;51.252;7.470;2022-09-12T11:21:30;4.43;;;3.40;;
27438;SDS011;14887;51.252;7.470;2022-09-12T11:24:22;9.33;;;4.63;;
27438;SDS011;14887;51.252;7.470;2022-09-12T11:30:13;8.00;;;4.00;;
27438;SDS011;14887;51.252;7.470;2022-09-12T11:40:48;5.60;;;4.17;;
27438;SDS011;14887;51.252;7.470;2022-09-12T11:46:20;6.80;;;3.90;;
27438;SDS011;14887;51.252;7.470;2022-09-12T11:51:43;5.03;;;3.77;;
27438;SDS011;14887;51.252;7.470;2022-09-12T12:02:25;5.20;;;3.23;;
27438;SDS011;14887;51.252;7.470;2022-09-12T12:05:03;4.33;;;3.30;;
27438;SDS011;14887;51.252;7.470;2022-09-12T12:07:57;4.00;;;2.87;;
27438;SDS011;14887;51.252;7.470;2022-09-12T12:13:02;5.40;;;3.50;;
27438;SDS011;14887;51.252;7.470;2022-09-12T12:15:32;4.40;;;3.17;;
27438;SDS011;14887;51.252;7.470;2022-09-12T12:18:02;4.70;;;3.30;;
27438;SDS011;14887;51.252;7.470;2022-09-12T12:20:39;4.43;;;3.30;;
27438;SDS011;14887;51.252;7.470;2022-09-12T12:23:05;3.33;;;2.93;;
27438;SDS011;14887;51.252;7.470;2022-09-12T12:25:38;4.90;;;2.87;;
27438;SDS011;14887;51.252;7.470;2022-09-12T12:28:14;3.30;;;2.50;;
27438;SDS011;14887;51.252;7.470;2022-09-12T12:31:02;4.93;;;2.50;;
27438;SDS011;14887;51.252;7.470;2022-09-12T12:38:27;3.97;;;3.10;;
27438;SDS011;14887;51.252;7.470;2022-09-12T12:46:18;4.50;;;3.20;;
27438;SDS011;14887;51.252;7.470;2022-09-12T12:48:55;2.67;;;2.20;;
27438;SDS011;14887;51.252;7.470;2022-09-12T12:53:53;6.07;;;2.80;;
27438;SDS011;14887;51.252;7.470;2022-09-12T12:59:02;5.40;;;2.70;;
27438;SDS011;14887;51.252;7.470;2022-09-12T13:01:37;3.00;;;2.67;;
27438;SDS011;14887;51.252;7.470;2022-09-12T13:04:13;4.83;;;2.90;;
27438;SDS011;14887;51.252;7.470;2022-09-12T13:06:43;3.50;;;2.73;;
27438;SDS011;14887;51.252;7.470;2022-09-12T13:09:20;2.40;;;2.20;;
27438;SDS011;14887;51.252;7.470;2022-09-12T13:11:58;11.10;;;2.87;;
27438;SDS011;14887;51.252;7.470;2022-09-12T13:17:07;5.40;;;2.60;;
27438;SDS011;14887;51.252;7.470;2022-09-12T13:19:43;3.67;;;2.47;;
27438;SDS011;14887;51.252;7.470;2022-09-12T13:22:09;2.10;;;1.90;;
27438;SDS011;14887;51.252;7.470;2022-09-12T13:24:42;3.60;;;2.03;;
27438;SDS011;14887;51.252;7.470;2022-09-12T13:27:16;3.37;;;2.13;;
27438;SDS011;14887;51.252;7.470;2022-09-12T13:29:46;2.50;;;2.30;;
27438;SDS011;14887;51.252;7.470;2022-09-12T13:32:11;2.73;;;2.53;;
27438;SDS011;14887;51.252;7.470;2022-09-12T13:34:42;2.70;;;2.17;;
27438;SDS011;14887;51.252;7.470;2022-09-12T13:40:15;3.23;;;1.87;;
27438;SDS011;14887;51.252;7.470;2022-09-12T13:45:39;2.53;;;1.90;;
27438;SDS011;14887;51.252;7.470;2022-09-12T13:48:09;2.40;;;2.20;;
27438;SDS011;14887;51.252;7.470;2022-09-12T13:50:40;4.37;;;2.30;;
27438;SDS011;14887;51.252;7.470;2022-09-12T13:53:15;2.33;;;2.13;;
27438;SDS011;14887;51.252;7.470;2022-09-12T13:55:44;2.00;;;1.80;;
27438;SDS011;14887;51.252;7.470;2022-09-12T13:58:26;2.40;;;2.20;;
27438;SDS011;14887;51.252;7.470;2022-09-12T14:03:42;1.80;;;1.63;;
27438;SDS011;14887;51.252;7.470;2022-09-12T14:06:50;1.67;;;1.57;;
27438;SDS011;14887;51.252;7.470;2022-09-12T14:09:24;1.70;;;1.60;;
27438;SDS011;14887;51.252;7.470;2022-09-12T14:11:53;2.00;;;1.80;;
27438;SDS011;14887;51.252;7.470;2022-09-12T14:14:30;2.40;;;2.20;;
27438;SDS011;14887;51.252;7.470;2022-09-12T14:16:57;1.50;;;1.40;;
27438;SDS011;14887;51.252;7.470;2022-09-12T14:19:23;1.40;;;1.30;;
27438;SDS011;14887;51.252;7.470;2022-09-12T14:21:50;1.43;;;1.33;;
27438;SDS011;14887;51.252;7.470;2022-09-12T14:24:17;1.63;;;1.33;;
27438;SDS011;14887;51.252;7.470;2022-09-12T14:26:44;3.20;;;1.47;;
27438;SDS011;14887;51.252;7.470;2022-09-12T14:29:12;7.63;;;1.40;;
27438;SDS011;14887;51.252;7.470;2022-09-12T14:31:41;1.53;;;1.10;;
27438;SDS011;14887;51.252;7.470;2022-09-12T14:34:12;1.30;;;1.20;;
27438;SDS011;14887;51.252;7.470;2022-09-12T14:36:43;1.70;;;1.60;;
27438;SDS011;14887;51.252;7.470;2022-09-12T14:39:25;1.43;;;1.30;;
27438;SDS011;14887;51.252;7.470;2022-09-12T14:42:17;1.80;;;1.70;;
27438;SDS011;14887;51.252;7.470;2022-09-12T14:44:52;1.40;;;1.30;;
27438;SDS011;14887;51.252;7.470;2022-09-12T14:47:24;1.47;;;1.33;;
27438;SDS011;14887;51.252;7.470;2022-09-12T14:49:52;1.47;;;1.37;;
27438;SDS011;14887;51.252;7.470;2022-09-12T14:52:27;1.50;;;1.40;;
27438;SDS011;14887;51.252;7.470;2022-09-12T14:55:02;1.70;;;1.60;;
27438;SDS011;14887;51.252;7.470;2022-09-12T14:57:47;1.73;;;1.60;;
27438;SDS011;14887;51.252;7.470;2022-09-12T15:01:20;1.60;;;1.40;;
27438;SDS011;14887;51.252;7.470;2022-09-12T15:03:49;2.00;;;1.40;;
27438;SDS011;14887;51.252;7.470;2022-09-12T15:06:21;1.77;;;1.67;;
27438;SDS011;14887;51.252;7.470;2022-09-12T15:08:56;1.40;;;1.30;;
27438;SDS011;14887;51.252;7.470;2022-09-12T15:11:24;3.77;;;1.93;;
27438;SDS011;14887;51.252;7.470;2022-09-12T15:13:50;1.90;;;1.60;;
27438;SDS011;14887;51.252;7.470;2022-09-12T15:16:16;2.33;;;1.50;;
27438;SDS011;14887;51.252;7.470;2022-09-12T15:18:42;1.80;;;1.70;;
27438;SDS011;14887;51.252;7.470;2022-09-12T15:21:10;2.67;;;2.20;;
27438;SDS011;14887;51.252;7.470;2022-09-12T15:23:44;1.80;;;1.70;;
27438;SDS011;14887;51.252;7.470;2022-09-12T15:26:12;4.43;;;2.20;;
27438;SDS011;14887;51.252;7.470;2022-09-12T15:28:43;2.27;;;2.10;;
27438;SDS011;14887;51.252;7.470;2022-09-12T15:31:14;5.00;;;1.70;;
27438;SDS011;14887;51.252;7.470;2022-09-12T15:33:48;2.40;;;2.20;;
27438;SDS011;14887;51.252;7.470;2022-09-12T15:36:15;7.13;;;2.03;;
27438;SDS011;14887;51.252;7.470;2022-09-12T15:38:42;2.53;;;2.33;;
27438;SDS011;14887;51.252;7.470;2022-09-12T15:41:09;3.83;;;2.13;;
27438;SDS011;14887;51.252;7.470;2022-09-12T15:43:37;4.57;;;1.80;;
27438;SDS011;14887;51.252;7.470;2022-09-12T15:46:02;2.70;;;2.50;;
27438;SDS011;14887;51.252;7.470;2022-09-12T15:48:30;3.37;;;2.07;;
27438;SDS011;14887;51.252;7.470;2022-09-12T15:50:56;2.60;;;2.40;;
27438;SDS011;14887;51.252;7.470;2022-09-12T15:53:25;2.73;;;2.53;;
27438;SDS011;14887;51.252;7.470;2022-09-12T15:55:51;3.53;;;2.57;;
27438;SDS011;14887;51.252;7.470;2022-09-12T15:58:17;2.60;;;2.07;;
27438;SDS011;14887;51.252;7.470;2022-09-12T16:00:43;4.53;;;2.03;;
27438;SDS011;14887;51.252;7.470;2022-09-12T16:03:15;4.50;;;2.17;;
27438;SDS011;14887;51.252;7.470;2022-09-12T16:05:45;3.17;;;2.30;;
27438;SDS011;14887;51.252;7.470;2022-09-12T16:08:11;3.40;;;2.47;;
27438;SDS011;14887;51.252;7.470;2022-09-12T16:10:37;2.50;;;2.10;;
27438;SDS011;14887;51.252;7.470;2022-09-12T16:13:02;3.60;;;2.43;;
27438;SDS011;14887;51.252;7.470;2022-09-12T16:15:28;3.13;;;1.97;;
27438;SDS011;14887;51.252;7.470;2022-09-12T16:17:54;2.17;;;1.97;;
27438;SDS011;14887;51.252;7.470;2022-09-12T16:20:20;2.03;;;1.83;;
27438;SDS011;14887;51.252;7.470;2022-09-12T16:22:47;2.37;;;1.80;;
27438;SDS011;14887;51.252;7.470;2022-09-12T16:25:13;2.37;;;2.17;;
27438;SDS011;14887;51.252;7.470;2022-09-12T16:27:38;2.20;;;2.00;;
27438;SDS011;14887;51.252;7.470;2022-09-12T16:30:04;3.33;;;2.03;;
27438;SDS011;14887;51.252;7.470;2022-09-12T16:32:31;2.50;;;2.10;;
27438;SDS011;14887;51.252;7.470;2022-09-12T16:34:57;2.27;;;2.00;;
27438;SDS011;14887;51.252;7.470;2022-09-12T16:37:22;2.60;;;2.40;;
27438;SDS011;14887;51.252;7.470;2022-09-12T16:39:48;4.70;;;2.50;;
27438;SDS011;14887;51.252;7.470;2022-09-12T16:42:16;2.37;;;2.17;;
27438;SDS011;14887;51.252;7.470;2022-09-12T16:44:43;3.37;;;2.47;;
27438;SDS011;14887;51.252;7.470;2022-09-12T16:47:10;3.83;;;2.67;;
27438;SDS011;14887;51.252;7.470;2022-09-12T16:49:36;2.57;;;2.23;;
27438;SDS011;14887;51.252;7.470;2022-09-12T16:52:01;3.40;;;2.80;;
27438;SDS011;14887;51.252;7.470;2022-09-12T16:54:27;2.30;;;2.10;;
27438;SDS011;14887;51.252;7.470;2022-09-12T16:56:52;2.63;;;1.90;;
27438;SDS011;14887;51.252;7.470;2022-09-12T16:59:18;2.60;;;2.30;;
27438;SDS011;14887;51.252;7.470;2022-09-12T17:01:43;2.83;;;2.03;;
27438;SDS011;14887;51.252;7.470;2022-09-12T17:04:09;2.30;;;2.00;;
27438;SDS011;14887;51.252;7.470;2022-09-12T17:06:35;2.90;;;2.10;;
27438;SDS011;14887;51.252;7.470;2022-09-12T17:09:02;2.53;;;2.27;;
27438;SDS011;14887;51.252;7.470;2022-09-12T17:11:32;2.73;;;2.13;;
27438;SDS011;14887;51.252;7.470;2022-09-12T17:14:01;2.43;;;2.23;;
27438;SDS011;14887;51.252;7.470;2022-09-12T17:16:30;2.30;;;2.10;;
27438;SDS011;14887;51.252;7.470;2022-09-12T17:18:56;2.97;;;2.40;;
27438;SDS011;14887;51.252;7.470;2022-09-12T17:21:22;4.60;;;2.70;;